sensor_id;sensor_type;location;lat;lon;timestamp;temperature;humidity
77839;SHT31;67034;43.226;27.932;2023-05-10T00:00:50;7.65;82.67
77839;SHT31;67034;43.226;27.932;2023-05-10T00:03:16;7.62;82.41
77839;SHT31;67034;43.226;27.932;2023-05-10T00:05:42;7.58;82.20
77839;SHT31;67034;43.226;27.932;2023-05-10T00:08:08;7.58;82.24
77839;SHT31;67034;43.226;27.932;2023-05-10T00:10:35;7.55;82.22
77839;SHT31;67034;43.226;27.932;2023-05-10T00:13:02;7.52;82.28
77839;SHT31;67034;43.226;27.932;2023-05-10T00:15:28;7.47;82.24
77839;SHT31;67034;43.226;27.932;2023-05-10T00:17:55;7.43;82.20
77839;SHT31;67034;43.226;27.932;2023-05-10T00:20:21;7.32;82.42
77839;SHT31;67034;43.226;27.932;2023-05-10T00:22:47;7.30;82.54
77839;SHT31;67034;43.226;27.932;2023-05-10T00:25:12;7.37;82.39
77839;SHT31;67034;43.226;27.932;2023-05-10T00:27:39;7.40;82.50
77839;SHT31;67034;43.226;27.932;2023-05-10T00:30:06;7.41;82.51
77839;SHT31;67034;43.226;27.932;2023-05-10T00:32:32;7.41;82.55
77839;SHT31;67034;43.226;27.932;2023-05-10T00:34:58;7.47;82.39
77839;SHT31;67034;43.226;27.932;2023-05-10T00:37:23;7.50;82.23
77839;SHT31;67034;43.226;27.932;2023-05-10T00:39:49;7.48;82.24
77839;SHT31;67034;43.226;27.932;2023-05-10T00:42:15;7.48;82.30
77839;SHT31;67034;43.226;27.932;2023-05-10T00:44:42;7.52;81.93
77839;SHT31;67034;43.226;27.932;2023-05-10T00:47:08;7.51;82.15
77839;SHT31;67034;43.226;27.932;2023-05-10T00:49:34;7.40;82.39
77839;SHT31;67034;43.226;27.932;2023-05-10T00:52:00;7.32;82.59
77839;SHT31;67034;43.226;27.932;2023-05-10T00:54:27;7.31;82.69
77839;SHT31;67034;43.226;27.932;2023-05-10T00:56:53;7.31;82.83
77839;SHT31;67034;43.226;27.932;2023-05-10T00:59:19;7.31;82.73
77839;SHT31;67034;43.226;27.932;2023-05-10T01:01:46;7.28;82.76
77839;SHT31;67034;43.226;27.932;2023-05-10T01:04:13;7.26;82.87
77839;SHT31;67034;43.226;27.932;2023-05-10T01:06:39;7.26;82.85
77839;SHT31;67034;43.226;27.932;2023-05-10T01:09:05;7.28;82.83
77839;SHT31;67034;43.226;27.932;2023-05-10T01:11:32;7.31;82.85
77839;SHT31;67034;43.226;27.932;2023-05-10T01:13:58;7.32;82.95
77839;SHT31;67034;43.226;27.932;2023-05-10T01:16:24;7.34;83.09
77839;SHT31;67034;43.226;27.932;2023-05-10T01:18:53;7.32;83.15
77839;SHT31;67034;43.226;27.932;2023-05-10T01:21:23;7.30;83.11
77839;SHT31;67034;43.226;27.932;2023-05-10T01:27:32;7.24;83.35
77839;SHT31;67034;43.226;27.932;2023-05-10T01:30:35;7.18;83.45
77839;SHT31;67034;43.226;27.932;2023-05-10T01:33:11;7.13;83.79
77839;SHT31;67034;43.226;27.932;2023-05-10T01:35:43;7.11;83.90
77839;SHT31;67034;43.226;27.932;2023-05-10T01:38:18;7.11;84.05
77839;SHT31;67034;43.226;27.932;2023-05-10T01:40:50;7.14;84.14
77839;SHT31;67034;43.226;27.932;2023-05-10T01:43:22;7.10;84.14
77839;SHT31;67034;43.226;27.932;2023-05-10T01:46:04;7.10;84.36
77839;SHT31;67034;43.226;27.932;2023-05-10T01:48:38;7.11;84.40
77839;SHT31;67034;43.226;27.932;2023-05-10T01:51:06;7.04;84.50
77839;SHT31;67034;43.226;27.932;2023-05-10T01:53:33;7.03;84.62
77839;SHT31;67034;43.226;27.932;2023-05-10T01:56:02;7.03;84.79
77839;SHT31;67034;43.226;27.932;2023-05-10T01:58:30;7.00;84.68
77839;SHT31;67034;43.226;27.932;2023-05-10T02:00:58;6.95;84.70
77839;SHT31;67034;43.226;27.932;2023-05-10T02:03:25;6.92;84.79
77839;SHT31;67034;43.226;27.932;2023-05-10T02:05:54;6.86;84.80
77839;SHT31;67034;43.226;27.932;2023-05-10T02:08:21;6.83;84.97
77839;SHT31;67034;43.226;27.932;2023-05-10T02:10:49;6.85;84.97
77839;SHT31;67034;43.226;27.932;2023-05-10T02:13:16;6.82;85.10
77839;SHT31;67034;43.226;27.932;2023-05-10T02:15:44;6.82;85.13
77839;SHT31;67034;43.226;27.932;2023-05-10T02:18:11;6.79;85.17
77839;SHT31;67034;43.226;27.932;2023-05-10T02:20:38;6.83;85.18
77839;SHT31;67034;43.226;27.932;2023-05-10T02:23:07;6.82;85.11
77839;SHT31;67034;43.226;27.932;2023-05-10T02:25:34;6.77;85.18
77839;SHT31;67034;43.226;27.932;2023-05-10T02:28:02;6.76;85.16
77839;SHT31;67034;43.226;27.932;2023-05-10T02:30:30;6.77;85.22
77839;SHT31;67034;43.226;27.932;2023-05-10T02:32:57;6.75;85.22
77839;SHT31;67034;43.226;27.932;2023-05-10T02:35:25;6.77;85.11
77839;SHT31;67034;43.226;27.932;2023-05-10T02:37:52;6.79;85.09
77839;SHT31;67034;43.226;27.932;2023-05-10T02:40:19;6.77;85.16
77839;SHT31;67034;43.226;27.932;2023-05-10T02:42:47;6.82;85.10
77839;SHT31;67034;43.226;27.932;2023-05-10T02:45:18;6.83;85.15
77839;SHT31;67034;43.226;27.932;2023-05-10T02:47:44;6.89;85.05
77839;SHT31;67034;43.226;27.932;2023-05-10T02:50:10;6.95;85.05
77839;SHT31;67034;43.226;27.932;2023-05-10T02:52:40;6.96;84.99
77839;SHT31;67034;43.226;27.932;2023-05-10T02:55:09;7.03;84.85
77839;SHT31;67034;43.226;27.932;2023-05-10T02:57:41;7.10;84.79
77839;SHT31;67034;43.226;27.932;2023-05-10T03:00:08;7.18;84.53
77839;SHT31;67034;43.226;27.932;2023-05-10T03:02:34;7.24;84.42
77839;SHT31;67034;43.226;27.932;2023-05-10T03:04:59;7.24;84.28
77839;SHT31;67034;43.226;27.932;2023-05-10T03:07:25;7.32;84.25
77839;SHT31;67034;43.226;27.932;2023-05-10T03:09:50;7.31;84.17
77839;SHT31;67034;43.226;27.932;2023-05-10T03:12:23;7.38;84.15
77839;SHT31;67034;43.226;27.932;2023-05-10T03:15:01;7.43;83.87
77839;SHT31;67034;43.226;27.932;2023-05-10T03:17:30;7.50;83.80
77839;SHT31;67034;43.226;27.932;2023-05-10T03:20:04;7.72;83.32
77839;SHT31;67034;43.226;27.932;2023-05-10T03:22:34;7.96;82.05
77839;SHT31;67034;43.226;27.932;2023-05-10T03:25:03;8.03;81.71
77839;SHT31;67034;43.226;27.932;2023-05-10T03:27:31;8.12;81.58
77839;SHT31;67034;43.226;27.932;2023-05-10T03:29:58;8.03;81.93
77839;SHT31;67034;43.226;27.932;2023-05-10T03:32:25;8.02;81.92
77839;SHT31;67034;43.226;27.932;2023-05-10T03:34:52;7.96;82.43
77839;SHT31;67034;43.226;27.932;2023-05-10T03:37:18;8.06;82.20
77839;SHT31;67034;43.226;27.932;2023-05-10T03:39:44;8.19;81.74
77839;SHT31;67034;43.226;27.932;2023-05-10T03:42:09;8.03;82.03
77839;SHT31;67034;43.226;27.932;2023-05-10T03:44:37;8.20;81.62
77839;SHT31;67034;43.226;27.932;2023-05-10T03:47:05;8.34;81.61
77839;SHT31;67034;43.226;27.932;2023-05-10T03:49:31;8.38;81.41
77839;SHT31;67034;43.226;27.932;2023-05-10T03:51:56;8.32;81.61
77839;SHT31;67034;43.226;27.932;2023-05-10T03:54:22;8.38;81.27
77839;SHT31;67034;43.226;27.932;2023-05-10T03:56:48;8.48;81.15
77839;SHT31;67034;43.226;27.932;2023-05-10T03:59:14;8.44;81.13
77839;SHT31;67034;43.226;27.932;2023-05-10T04:01:39;8.48;81.37
77839;SHT31;67034;43.226;27.932;2023-05-10T04:04:06;8.54;81.19
77839;SHT31;67034;43.226;27.932;2023-05-10T04:06:32;8.51;81.54
77839;SHT31;67034;43.226;27.932;2023-05-10T04:08:58;8.54;81.75
77839;SHT31;67034;43.226;27.932;2023-05-10T04:11:25;8.63;81.71
77839;SHT31;67034;43.226;27.932;2023-05-10T04:13:51;8.79;81.27
77839;SHT31;67034;43.226;27.932;2023-05-10T04:16:17;9.02;81.06
77839;SHT31;67034;43.226;27.932;2023-05-10T04:18:43;9.26;80.17
77839;SHT31;67034;43.226;27.932;2023-05-10T04:21:12;9.43;79.67
77839;SHT31;67034;43.226;27.932;2023-05-10T04:23:41;9.54;79.10
77839;SHT31;67034;43.226;27.932;2023-05-10T04:26:07;9.64;78.98
77839;SHT31;67034;43.226;27.932;2023-05-10T04:28:33;9.88;78.19
77839;SHT31;67034;43.226;27.932;2023-05-10T04:31:02;9.90;78.28
77839;SHT31;67034;43.226;27.932;2023-05-10T04:33:28;9.97;78.14
77839;SHT31;67034;43.226;27.932;2023-05-10T04:35:54;10.09;78.01
77839;SHT31;67034;43.226;27.932;2023-05-10T04:38:21;10.19;77.43
77839;SHT31;67034;43.226;27.932;2023-05-10T04:40:46;10.30;77.54
77839;SHT31;67034;43.226;27.932;2023-05-10T04:43:12;10.39;76.48
77839;SHT31;67034;43.226;27.932;2023-05-10T04:45:38;10.38;76.92
77839;SHT31;67034;43.226;27.932;2023-05-10T04:48:04;10.50;76.83
77839;SHT31;67034;43.226;27.932;2023-05-10T04:50:30;10.46;76.71
77839;SHT31;67034;43.226;27.932;2023-05-10T04:52:57;10.50;76.83
77839;SHT31;67034;43.226;27.932;2023-05-10T04:55:24;10.71;76.90
77839;SHT31;67034;43.226;27.932;2023-05-10T04:57:50;10.73;76.55
77839;SHT31;67034;43.226;27.932;2023-05-10T05:00:16;10.77;76.58
77839;SHT31;67034;43.226;27.932;2023-05-10T05:02:43;10.81;75.71
77839;SHT31;67034;43.226;27.932;2023-05-10T05:05:09;11.00;75.70
77839;SHT31;67034;43.226;27.932;2023-05-10T05:07:35;11.03;75.07
77839;SHT31;67034;43.226;27.932;2023-05-10T05:10:01;11.17;74.34
77839;SHT31;67034;43.226;27.932;2023-05-10T05:12:28;11.24;75.38
77839;SHT31;67034;43.226;27.932;2023-05-10T05:14:53;11.34;73.65
77839;SHT31;67034;43.226;27.932;2023-05-10T05:17:19;11.27;73.32
77839;SHT31;67034;43.226;27.932;2023-05-10T05:19:45;11.35;73.16
77839;SHT31;67034;43.226;27.932;2023-05-10T05:22:11;11.42;72.71
77839;SHT31;67034;43.226;27.932;2023-05-10T05:24:36;11.48;71.76
77839;SHT31;67034;43.226;27.932;2023-05-10T05:27:05;11.54;71.90
77839;SHT31;67034;43.226;27.932;2023-05-10T05:29:33;11.79;72.44
77839;SHT31;67034;43.226;27.932;2023-05-10T05:31:58;11.67;71.04
77839;SHT31;67034;43.226;27.932;2023-05-10T05:34:24;11.83;72.16
77839;SHT31;67034;43.226;27.932;2023-05-10T05:36:50;11.80;72.24
77839;SHT31;67034;43.226;27.932;2023-05-10T05:39:16;11.90;71.48
77839;SHT31;67034;43.226;27.932;2023-05-10T05:41:41;11.93;70.36
77839;SHT31;67034;43.226;27.932;2023-05-10T05:44:07;11.93;72.15
77839;SHT31;67034;43.226;27.932;2023-05-10T05:46:34;12.08;71.92
77839;SHT31;67034;43.226;27.932;2023-05-10T05:49:00;12.07;69.77
77839;SHT31;67034;43.226;27.932;2023-05-10T05:51:26;12.08;69.54
77839;SHT31;67034;43.226;27.932;2023-05-10T05:53:52;12.27;69.94
77839;SHT31;67034;43.226;27.932;2023-05-10T05:56:18;12.52;69.15
77839;SHT31;67034;43.226;27.932;2023-05-10T05:58:49;12.72;69.92
77839;SHT31;67034;43.226;27.932;2023-05-10T06:01:15;12.88;67.99
77839;SHT31;67034;43.226;27.932;2023-05-10T06:03:42;12.96;67.81
77839;SHT31;67034;43.226;27.932;2023-05-10T06:06:08;13.04;68.07
77839;SHT31;67034;43.226;27.932;2023-05-10T06:08:33;13.14;67.42
77839;SHT31;67034;43.226;27.932;2023-05-10T06:10:59;13.26;66.47
77839;SHT31;67034;43.226;27.932;2023-05-10T06:13:25;13.36;66.11
77839;SHT31;67034;43.226;27.932;2023-05-10T06:15:54;13.41;65.33
77839;SHT31;67034;43.226;27.932;2023-05-10T06:18:19;13.36;65.51
77839;SHT31;67034;43.226;27.932;2023-05-10T06:20:47;13.27;66.93
77839;SHT31;67034;43.226;27.932;2023-05-10T06:23:12;12.97;65.89
77839;SHT31;67034;43.226;27.932;2023-05-10T06:25:38;12.99;66.29
77839;SHT31;67034;43.226;27.932;2023-05-10T06:28:03;13.06;66.07
77839;SHT31;67034;43.226;27.932;2023-05-10T06:30:29;13.06;67.07
77839;SHT31;67034;43.226;27.932;2023-05-10T06:32:55;13.13;65.64
77839;SHT31;67034;43.226;27.932;2023-05-10T06:35:21;13.23;66.02
77839;SHT31;67034;43.226;27.932;2023-05-10T06:37:48;12.78;65.14
77839;SHT31;67034;43.226;27.932;2023-05-10T06:40:14;12.83;64.87
77839;SHT31;67034;43.226;27.932;2023-05-10T06:42:39;12.89;66.20
77839;SHT31;67034;43.226;27.932;2023-05-10T06:45:06;13.09;66.30
77839;SHT31;67034;43.226;27.932;2023-05-10T06:47:32;13.14;65.09
77839;SHT31;67034;43.226;27.932;2023-05-10T06:49:58;13.34;65.09
77839;SHT31;67034;43.226;27.932;2023-05-10T06:52:24;13.36;63.90
77839;SHT31;67034;43.226;27.932;2023-05-10T06:54:51;13.17;62.95
77839;SHT31;67034;43.226;27.932;2023-05-10T06:57:17;13.14;62.35
77839;SHT31;67034;43.226;27.932;2023-05-10T06:59:43;12.61;65.71
77839;SHT31;67034;43.226;27.932;2023-05-10T07:02:09;13.00;66.11
77839;SHT31;67034;43.226;27.932;2023-05-10T07:04:34;13.10;66.07
77839;SHT31;67034;43.226;27.932;2023-05-10T07:07:00;13.61;64.25
77839;SHT31;67034;43.226;27.932;2023-05-10T07:09:26;13.78;64.68
77839;SHT31;67034;43.226;27.932;2023-05-10T07:11:53;14.05;63.16
77839;SHT31;67034;43.226;27.932;2023-05-10T07:14:19;14.32;62.27
77839;SHT31;67034;43.226;27.932;2023-05-10T07:16:44;14.49;62.44
77839;SHT31;67034;43.226;27.932;2023-05-10T07:19:10;14.61;61.92
77839;SHT31;67034;43.226;27.932;2023-05-10T07:21:36;14.77;61.40
77839;SHT31;67034;43.226;27.932;2023-05-10T07:24:02;15.07;61.26
77839;SHT31;67034;43.226;27.932;2023-05-10T07:26:28;15.31;58.25
77839;SHT31;67034;43.226;27.932;2023-05-10T07:28:56;15.35;60.57
77839;SHT31;67034;43.226;27.932;2023-05-10T07:31:22;15.08;60.05
77839;SHT31;67034;43.226;27.932;2023-05-10T07:33:47;14.98;59.83
77839;SHT31;67034;43.226;27.932;2023-05-10T07:36:13;14.98;61.56
77839;SHT31;67034;43.226;27.932;2023-05-10T07:38:39;14.88;61.69
77839;SHT31;67034;43.226;27.932;2023-05-10T07:41:05;14.92;61.39
77839;SHT31;67034;43.226;27.932;2023-05-10T07:43:31;14.89;62.13
77839;SHT31;67034;43.226;27.932;2023-05-10T07:45:58;14.81;61.92
77839;SHT31;67034;43.226;27.932;2023-05-10T07:48:25;14.95;61.66
77839;SHT31;67034;43.226;27.932;2023-05-10T07:50:51;15.07;62.30
77839;SHT31;67034;43.226;27.932;2023-05-10T07:53:17;14.95;63.93
77839;SHT31;67034;43.226;27.932;2023-05-10T07:55:44;14.81;63.85
77839;SHT31;67034;43.226;27.932;2023-05-10T07:58:10;14.78;63.77
77839;SHT31;67034;43.226;27.932;2023-05-10T08:00:36;14.80;63.36
77839;SHT31;67034;43.226;27.932;2023-05-10T08:03:13;14.71;62.08
77839;SHT31;67034;43.226;27.932;2023-05-10T08:05:39;14.85;62.89
77839;SHT31;67034;43.226;27.932;2023-05-10T08:08:04;15.17;62.34
77839;SHT31;67034;43.226;27.932;2023-05-10T08:10:30;15.40;59.24
77839;SHT31;67034;43.226;27.932;2023-05-10T08:12:56;15.77;60.47
77839;SHT31;67034;43.226;27.932;2023-05-10T08:15:23;16.07;58.42
77839;SHT31;67034;43.226;27.932;2023-05-10T08:17:49;16.24;58.69
77839;SHT31;67034;43.226;27.932;2023-05-10T08:20:16;16.34;58.03
77839;SHT31;67034;43.226;27.932;2023-05-10T08:22:44;16.35;54.19
77839;SHT31;67034;43.226;27.932;2023-05-10T08:25:10;16.52;57.92
77839;SHT31;67034;43.226;27.932;2023-05-10T08:27:36;16.35;55.35
77839;SHT31;67034;43.226;27.932;2023-05-10T08:30:02;16.24;56.01
77839;SHT31;67034;43.226;27.932;2023-05-10T08:32:27;16.26;55.52
77839;SHT31;67034;43.226;27.932;2023-05-10T08:34:53;16.58;53.34
77839;SHT31;67034;43.226;27.932;2023-05-10T08:37:21;16.58;55.85
77839;SHT31;67034;43.226;27.932;2023-05-10T08:39:46;16.40;55.45
77839;SHT31;67034;43.226;27.932;2023-05-10T08:42:16;16.44;57.12
77839;SHT31;67034;43.226;27.932;2023-05-10T08:44:46;16.76;56.10
77839;SHT31;67034;43.226;27.932;2023-05-10T08:47:15;16.87;55.57
77839;SHT31;67034;43.226;27.932;2023-05-10T08:49:41;16.97;58.12
77839;SHT31;67034;43.226;27.932;2023-05-10T08:52:08;16.92;56.65
77839;SHT31;67034;43.226;27.932;2023-05-10T08:54:37;17.13;53.47
77839;SHT31;67034;43.226;27.932;2023-05-10T08:57:03;17.17;54.17
77839;SHT31;67034;43.226;27.932;2023-05-10T08:59:29;17.60;56.35
77839;SHT31;67034;43.226;27.932;2023-05-10T09:01:57;17.65;54.42
77839;SHT31;67034;43.226;27.932;2023-05-10T09:04:23;17.65;54.67
77839;SHT31;67034;43.226;27.932;2023-05-10T09:06:48;17.31;54.86
77839;SHT31;67034;43.226;27.932;2023-05-10T09:09:14;16.96;56.59
77839;SHT31;67034;43.226;27.932;2023-05-10T09:11:43;16.77;56.47
77839;SHT31;67034;43.226;27.932;2023-05-10T09:14:09;16.83;55.45
77839;SHT31;67034;43.226;27.932;2023-05-10T09:16:35;16.79;54.68
77839;SHT31;67034;43.226;27.932;2023-05-10T09:19:00;17.21;56.38
77839;SHT31;67034;43.226;27.932;2023-05-10T09:21:26;17.21;55.86
77839;SHT31;67034;43.226;27.932;2023-05-10T09:23:52;17.37;54.86
77839;SHT31;67034;43.226;27.932;2023-05-10T09:26:22;17.50;56.81
77839;SHT31;67034;43.226;27.932;2023-05-10T09:28:53;17.35;56.55
77839;SHT31;67034;43.226;27.932;2023-05-10T09:31:19;17.27;53.29
77839;SHT31;67034;43.226;27.932;2023-05-10T09:33:46;17.32;53.12
77839;SHT31;67034;43.226;27.932;2023-05-10T09:36:13;17.19;51.73
77839;SHT31;67034;43.226;27.932;2023-05-10T09:38:45;17.03;51.76
77839;SHT31;67034;43.226;27.932;2023-05-10T09:41:16;16.72;55.60
77839;SHT31;67034;43.226;27.932;2023-05-10T09:43:42;16.75;53.85
77839;SHT31;67034;43.226;27.932;2023-05-10T09:46:10;16.99;55.77
77839;SHT31;67034;43.226;27.932;2023-05-10T09:48:41;16.96;55.33
77839;SHT31;67034;43.226;27.932;2023-05-10T09:51:07;16.68;52.82
77839;SHT31;67034;43.226;27.932;2023-05-10T09:53:33;16.75;54.59
77839;SHT31;67034;43.226;27.932;2023-05-10T09:55:59;17.04;55.72
77839;SHT31;67034;43.226;27.932;2023-05-10T09:58:25;16.77;53.37
77839;SHT31;67034;43.226;27.932;2023-05-10T10:00:51;16.44;53.91
77839;SHT31;67034;43.226;27.932;2023-05-10T10:03:20;15.97;55.86
77839;SHT31;67034;43.226;27.932;2023-05-10T10:05:47;16.22;55.93
77839;SHT31;67034;43.226;27.932;2023-05-10T10:08:14;16.38;55.71
77839;SHT31;67034;43.226;27.932;2023-05-10T10:10:39;16.32;55.11
77839;SHT31;67034;43.226;27.932;2023-05-10T10:13:06;16.58;56.07
77839;SHT31;67034;43.226;27.932;2023-05-10T10:15:32;16.76;55.17
77839;SHT31;67034;43.226;27.932;2023-05-10T10:17:58;16.32;53.19
77839;SHT31;67034;43.226;27.932;2023-05-10T10:20:27;16.55;55.71
77839;SHT31;67034;43.226;27.932;2023-05-10T10:22:53;16.34;52.83
77839;SHT31;67034;43.226;27.932;2023-05-10T10:25:20;15.96;55.20
77839;SHT31;67034;43.226;27.932;2023-05-10T10:27:58;16.26;56.51
77839;SHT31;67034;43.226;27.932;2023-05-10T10:30:27;16.72;55.48
77839;SHT31;67034;43.226;27.932;2023-05-10T10:33:06;17.16;54.31
77839;SHT31;67034;43.226;27.932;2023-05-10T10:35:37;17.54;51.74
77839;SHT31;67034;43.226;27.932;2023-05-10T10:38:03;17.86;50.34
77839;SHT31;67034;43.226;27.932;2023-05-10T10:40:30;17.75;49.54
77839;SHT31;67034;43.226;27.932;2023-05-10T10:42:58;17.67;52.14
77839;SHT31;67034;43.226;27.932;2023-05-10T10:45:43;17.78;50.83
77839;SHT31;67034;43.226;27.932;2023-05-10T10:48:22;18.19;51.12
77839;SHT31;67034;43.226;27.932;2023-05-10T10:50:56;17.89;48.97
77839;SHT31;67034;43.226;27.932;2023-05-10T10:53:21;17.26;51.30
77839;SHT31;67034;43.226;27.932;2023-05-10T10:55:48;17.02;51.61
77839;SHT31;67034;43.226;27.932;2023-05-10T10:58:29;16.68;52.09
77839;SHT31;67034;43.226;27.932;2023-05-10T11:01:13;16.68;51.23
77839;SHT31;67034;43.226;27.932;2023-05-10T11:03:39;16.42;52.90
77839;SHT31;67034;43.226;27.932;2023-05-10T11:06:06;15.35;53.40
77839;SHT31;67034;43.226;27.932;2023-05-10T11:08:33;15.25;54.56
77839;SHT31;67034;43.226;27.932;2023-05-10T11:11:05;14.88;56.28
77839;SHT31;67034;43.226;27.932;2023-05-10T11:13:37;14.56;57.21
77839;SHT31;67034;43.226;27.932;2023-05-10T11:16:17;14.84;57.20
77839;SHT31;67034;43.226;27.932;2023-05-10T11:18:53;15.53;58.57
77839;SHT31;67034;43.226;27.932;2023-05-10T11:21:21;15.79;55.56
77839;SHT31;67034;43.226;27.932;2023-05-10T11:23:51;15.35;55.43
77839;SHT31;67034;43.226;27.932;2023-05-10T11:26:17;14.74;56.32
77839;SHT31;67034;43.226;27.932;2023-05-10T11:28:44;14.56;58.03
77839;SHT31;67034;43.226;27.932;2023-05-10T11:31:10;14.73;56.84
77839;SHT31;67034;43.226;27.932;2023-05-10T11:33:42;14.97;57.41
77839;SHT31;67034;43.226;27.932;2023-05-10T11:36:11;14.64;59.18
77839;SHT31;67034;43.226;27.932;2023-05-10T11:38:38;14.63;58.97
77839;SHT31;67034;43.226;27.932;2023-05-10T11:41:03;15.07;59.49
77839;SHT31;67034;43.226;27.932;2023-05-10T11:43:29;15.12;58.05
77839;SHT31;67034;43.226;27.932;2023-05-10T11:45:56;15.45;56.12
77839;SHT31;67034;43.226;27.932;2023-05-10T11:48:22;15.19;57.07
77839;SHT31;67034;43.226;27.932;2023-05-10T11:50:49;16.53;56.42
77839;SHT31;67034;43.226;27.932;2023-05-10T11:53:15;16.35;54.32
77839;SHT31;67034;43.226;27.932;2023-05-10T11:55:42;15.39;55.70
77839;SHT31;67034;43.226;27.932;2023-05-10T11:58:08;16.17;57.07
77839;SHT31;67034;43.226;27.932;2023-05-10T12:00:33;15.89;53.98
77839;SHT31;67034;43.226;27.932;2023-05-10T12:03:00;15.49;57.36
77839;SHT31;67034;43.226;27.932;2023-05-10T12:05:26;16.00;53.92
77839;SHT31;67034;43.226;27.932;2023-05-10T12:07:52;15.89;54.71
77839;SHT31;67034;43.226;27.932;2023-05-10T12:10:25;15.86;55.29
77839;SHT31;67034;43.226;27.932;2023-05-10T12:12:52;15.93;54.88
77839;SHT31;67034;43.226;27.932;2023-05-10T12:15:19;16.14;54.25
77839;SHT31;67034;43.226;27.932;2023-05-10T12:17:46;16.14;54.19
77839;SHT31;67034;43.226;27.932;2023-05-10T12:20:16;16.15;52.77
77839;SHT31;67034;43.226;27.932;2023-05-10T12:22:44;16.51;53.11
77839;SHT31;67034;43.226;27.932;2023-05-10T12:25:10;17.10;52.91
77839;SHT31;67034;43.226;27.932;2023-05-10T12:27:36;17.30;50.41
77839;SHT31;67034;43.226;27.932;2023-05-10T12:30:04;16.69;52.84
77839;SHT31;67034;43.226;27.932;2023-05-10T12:32:40;16.87;52.06
77839;SHT31;67034;43.226;27.932;2023-05-10T12:35:07;17.10;52.21
77839;SHT31;67034;43.226;27.932;2023-05-10T12:37:33;17.10;51.11
77839;SHT31;67034;43.226;27.932;2023-05-10T12:40:06;16.86;50.82
77839;SHT31;67034;43.226;27.932;2023-05-10T12:42:32;17.34;52.55
77839;SHT31;67034;43.226;27.932;2023-05-10T12:44:57;17.81;50.25
77839;SHT31;67034;43.226;27.932;2023-05-10T12:47:24;18.77;49.34
77839;SHT31;67034;43.226;27.932;2023-05-10T12:49:50;18.05;47.64
77839;SHT31;67034;43.226;27.932;2023-05-10T12:52:16;18.16;47.67
77839;SHT31;67034;43.226;27.932;2023-05-10T12:54:42;18.09;47.22
77839;SHT31;67034;43.226;27.932;2023-05-10T12:57:08;16.84;49.98
77839;SHT31;67034;43.226;27.932;2023-05-10T12:59:33;16.40;50.78
77839;SHT31;67034;43.226;27.932;2023-05-10T13:01:59;16.31;49.37
77839;SHT31;67034;43.226;27.932;2023-05-10T13:04:26;16.22;49.38
77839;SHT31;67034;43.226;27.932;2023-05-10T13:06:52;16.36;49.60
77839;SHT31;67034;43.226;27.932;2023-05-10T13:09:18;16.62;50.27
77839;SHT31;67034;43.226;27.932;2023-05-10T13:11:44;17.24;48.10
77839;SHT31;67034;43.226;27.932;2023-05-10T13:14:10;17.31;47.27
77839;SHT31;67034;43.226;27.932;2023-05-10T13:16:36;17.16;48.68
77839;SHT31;67034;43.226;27.932;2023-05-10T13:19:02;16.83;49.25
77839;SHT31;67034;43.226;27.932;2023-05-10T13:21:29;16.93;50.47
77839;SHT31;67034;43.226;27.932;2023-05-10T13:23:55;16.75;51.01
77839;SHT31;67034;43.226;27.932;2023-05-10T13:26:21;16.52;52.80
77839;SHT31;67034;43.226;27.932;2023-05-10T13:28:47;16.97;51.40
77839;SHT31;67034;43.226;27.932;2023-05-10T13:31:14;17.03;49.85
77839;SHT31;67034;43.226;27.932;2023-05-10T13:33:39;16.76;52.00
77839;SHT31;67034;43.226;27.932;2023-05-10T13:36:06;17.57;49.96
77839;SHT31;67034;43.226;27.932;2023-05-10T13:38:33;17.35;49.84
77839;SHT31;67034;43.226;27.932;2023-05-10T13:40:59;17.62;49.97
77839;SHT31;67034;43.226;27.932;2023-05-10T13:43:24;17.77;48.19
77839;SHT31;67034;43.226;27.932;2023-05-10T13:45:50;17.50;49.48
77839;SHT31;67034;43.226;27.932;2023-05-10T13:48:16;17.37;49.05
77839;SHT31;67034;43.226;27.932;2023-05-10T13:50:42;17.52;49.69
77839;SHT31;67034;43.226;27.932;2023-05-10T13:53:08;17.26;50.24
77839;SHT31;67034;43.226;27.932;2023-05-10T13:58:57;16.61;51.99
77839;SHT31;67034;43.226;27.932;2023-05-10T14:01:23;16.93;50.95
77839;SHT31;67034;43.226;27.932;2023-05-10T14:03:49;17.35;50.39
77839;SHT31;67034;43.226;27.932;2023-05-10T14:06:15;17.67;50.16
77839;SHT31;67034;43.226;27.932;2023-05-10T14:08:42;18.22;49.40
77839;SHT31;67034;43.226;27.932;2023-05-10T14:11:07;18.74;46.94
77839;SHT31;67034;43.226;27.932;2023-05-10T14:13:33;19.37;44.64
77839;SHT31;67034;43.226;27.932;2023-05-10T14:16:00;19.29;44.47
77839;SHT31;67034;43.226;27.932;2023-05-10T14:18:26;17.86;47.09
77839;SHT31;67034;43.226;27.932;2023-05-10T14:20:52;17.61;49.20
77839;SHT31;67034;43.226;27.932;2023-05-10T14:23:18;16.28;51.71
77839;SHT31;67034;43.226;27.932;2023-05-10T14:25:45;15.98;52.19
77839;SHT31;67034;43.226;27.932;2023-05-10T14:28:11;15.60;53.21
77839;SHT31;67034;43.226;27.932;2023-05-10T14:30:37;15.84;53.72
77839;SHT31;67034;43.226;27.932;2023-05-10T14:33:04;16.08;52.43
77839;SHT31;67034;43.226;27.932;2023-05-10T14:35:30;16.00;53.17
77839;SHT31;67034;43.226;27.932;2023-05-10T14:37:59;16.51;50.97
77839;SHT31;67034;43.226;27.932;2023-05-10T14:40:24;17.42;50.34
77839;SHT31;67034;43.226;27.932;2023-05-10T14:42:50;17.13;49.23
77839;SHT31;67034;43.226;27.932;2023-05-10T14:45:18;17.40;47.24
77839;SHT31;67034;43.226;27.932;2023-05-10T14:47:44;17.92;49.79
77839;SHT31;67034;43.226;27.932;2023-05-10T14:50:11;17.40;49.22
77839;SHT31;67034;43.226;27.932;2023-05-10T14:55:58;17.04;50.19
77839;SHT31;67034;43.226;27.932;2023-05-10T14:58:26;16.73;51.13
77839;SHT31;67034;43.226;27.932;2023-05-10T15:00:53;16.45;51.31
77839;SHT31;67034;43.226;27.932;2023-05-10T15:03:18;15.89;52.89
77839;SHT31;67034;43.226;27.932;2023-05-10T15:05:46;16.44;52.68
77839;SHT31;67034;43.226;27.932;2023-05-10T15:08:12;16.90;50.60
77839;SHT31;67034;43.226;27.932;2023-05-10T15:10:38;16.40;52.55
77839;SHT31;67034;43.226;27.932;2023-05-10T15:13:04;16.25;53.39
77839;SHT31;67034;43.226;27.932;2023-05-10T15:15:29;16.34;52.47
77839;SHT31;67034;43.226;27.932;2023-05-10T15:17:56;16.35;52.48
77839;SHT31;67034;43.226;27.932;2023-05-10T15:20:21;16.52;53.04
77839;SHT31;67034;43.226;27.932;2023-05-10T15:22:48;16.44;51.87
77839;SHT31;67034;43.226;27.932;2023-05-10T15:25:14;16.18;53.64
77839;SHT31;67034;43.226;27.932;2023-05-10T15:27:41;16.13;52.97
77839;SHT31;67034;43.226;27.932;2023-05-10T15:30:09;16.34;52.24